createdAt,value
2022-11-15T00:00:21.618Z,4.47
2022-11-15T00:01:21.612Z,4.46
2022-11-15T00:02:21.626Z,4.59
2022-11-15T00:03:21.587Z,4.59
2022-11-15T00:04:21.566Z,4.39
2022-11-15T00:05:21.578Z,4.47
2022-11-15T00:06:21.543Z,4.42
2022-11-15T00:07:48.210Z,4.43
2022-11-15T00:08:22.538Z,4.46
2022-11-15T00:09:21.501Z,4.32
2022-11-15T00:10:21.483Z,4.46
2022-11-15T00:11:21.476Z,4.38
2022-11-15T00:12:21.460Z,4.43
2022-11-15T00:13:21.450Z,4.34
2022-11-15T00:14:21.438Z,4.42
2022-11-15T00:15:21.434Z,4.38
2022-11-15T00:16:21.406Z,4.42
2022-11-15T00:17:21.394Z,4.36
2022-11-15T00:18:21.379Z,4.38
2022-11-15T00:19:21.369Z,4.44
2022-11-15T00:20:21.356Z,4.34
2022-11-15T00:21:21.362Z,4.51
2022-11-15T00:22:21.321Z,4.38
2022-11-15T00:23:21.313Z,4.34
2022-11-15T00:24:21.302Z,4.50
2022-11-15T00:25:21.289Z,4.43
2022-11-15T00:26:21.270Z,4.42
2022-11-15T00:27:21.263Z,4.38
2022-11-15T00:28:21.248Z,4.35
2022-11-15T00:29:21.236Z,4.42
2022-11-15T00:30:21.221Z,4.43
2022-11-15T00:31:21.212Z,4.29
2022-11-15T00:32:21.193Z,4.31
2022-11-15T00:33:21.184Z,4.28
2022-11-15T00:34:21.165Z,4.31
2022-11-15T00:35:21.161Z,4.26
2022-11-15T00:36:21.146Z,4.29
2022-11-15T00:37:21.148Z,4.31
2022-11-15T00:38:21.105Z,4.21
2022-11-15T00:39:21.104Z,4.38
2022-11-15T00:40:21.087Z,4.13
2022-11-15T00:41:21.080Z,4.14
2022-11-15T00:42:21.059Z,4.31
2022-11-15T00:43:21.051Z,4.29
2022-11-15T00:44:21.032Z,4.24
2022-11-15T00:45:21.022Z,4.11
2022-11-15T00:46:21.002Z,4.16
2022-11-15T00:47:20.996Z,4.17
2022-11-15T00:48:20.973Z,4.11
2022-11-15T00:49:20.965Z,4.16
2022-11-15T00:50:20.954Z,4.18
2022-11-15T00:51:20.941Z,4.08
2022-11-15T00:52:20.921Z,4.18
2022-11-15T00:53:20.940Z,4.13
2022-11-15T00:54:20.899Z,4.13
2022-11-15T00:55:20.889Z,4.16
2022-11-15T00:56:20.875Z,4.16
2022-11-15T00:57:20.868Z,4.14
2022-11-15T00:58:20.845Z,4.04
2022-11-15T00:59:20.838Z,4.13
2022-11-15T01:00:20.825Z,4.16
2022-11-15T01:01:20.882Z,4.11
2022-11-15T01:02:20.787Z,4.04
2022-11-15T01:03:20.783Z,4.00
2022-11-15T01:04:20.765Z,3.99
2022-11-15T01:05:20.760Z,4.10
2022-11-15T01:06:20.734Z,4.14
2022-11-15T01:07:20.836Z,4.08
2022-11-15T01:08:20.707Z,4.04
2022-11-15T01:09:20.723Z,3.99
2022-11-15T01:10:20.684Z,4.08
2022-11-15T01:11:20.681Z,4.17
2022-11-15T01:12:20.657Z,4.10
2022-11-15T01:13:20.647Z,4.11
2022-11-15T01:14:25.217Z,4.10
2022-11-15T01:15:20.617Z,4.13
2022-11-15T01:16:20.599Z,4.10
2022-11-15T01:17:20.599Z,4.06
2022-11-15T01:18:20.582Z,4.08
2022-11-15T01:19:20.760Z,4.21
2022-11-15T01:20:20.552Z,4.14
2022-11-15T01:21:20.541Z,4.21
2022-11-15T01:22:20.528Z,4.14
2022-11-15T01:23:20.513Z,4.16
2022-11-15T01:24:20.501Z,4.10
2022-11-15T01:25:20.514Z,4.11
2022-11-15T01:26:20.473Z,4.07
2022-11-15T01:27:20.456Z,4.14
2022-11-15T01:28:20.442Z,4.06
2022-11-15T01:29:20.431Z,4.13
2022-11-15T01:30:20.414Z,4.10
2022-11-15T01:31:20.401Z,4.08
2022-11-15T01:32:20.385Z,4.21
2022-11-15T01:33:20.380Z,4.20
2022-11-15T01:34:20.363Z,4.00
2022-11-15T01:35:20.355Z,4.20
2022-11-15T01:36:20.338Z,4.18
2022-11-15T01:37:20.325Z,4.18
2022-11-15T01:38:20.313Z,4.16
2022-11-15T01:39:20.299Z,4.14
2022-11-15T01:40:20.285Z,4.14
2022-11-15T01:41:20.291Z,4.17
2022-11-15T01:42:20.257Z,4.08
2022-11-15T01:43:20.240Z,4.16
2022-11-15T01:44:20.224Z,4.16
2022-11-15T01:45:20.219Z,4.14
2022-11-15T01:46:20.201Z,4.11
2022-11-15T01:47:20.191Z,4.13
2022-11-15T01:48:20.185Z,4.08
2022-11-15T01:49:20.169Z,4.16
2022-11-15T01:50:20.146Z,4.18
2022-11-15T01:51:20.137Z,4.14
2022-11-15T01:52:20.123Z,4.13
2022-11-15T01:53:20.109Z,4.08
2022-11-15T01:54:20.088Z,3.99
2022-11-15T01:55:20.080Z,4.00
2022-11-15T01:56:20.069Z,4.17
2022-11-15T01:57:20.083Z,4.04
2022-11-15T01:58:20.041Z,4.04
2022-11-15T01:59:20.032Z,4.06
2022-11-15T02:00:20.015Z,3.99
2022-11-15T02:01:20.083Z,4.07
2022-11-15T02:02:19.987Z,4.02
2022-11-15T02:03:19.977Z,3.95
2022-11-15T02:04:19.960Z,3.82
2022-11-15T02:05:19.948Z,3.81
2022-11-15T02:06:19.937Z,3.84
2022-11-15T02:07:19.947Z,3.88
2022-11-15T02:08:19.904Z,3.92
2022-11-15T02:09:19.896Z,3.75
2022-11-15T02:10:19.880Z,3.78
2022-11-15T02:11:19.872Z,3.84
2022-11-15T02:12:19.848Z,3.80
2022-11-15T02:13:19.870Z,3.77
2022-11-15T02:14:19.830Z,3.80
2022-11-15T02:15:19.818Z,3.75
2022-11-15T02:16:19.800Z,3.78
2022-11-15T02:17:19.786Z,3.71
2022-11-15T02:18:19.778Z,3.67
2022-11-15T02:19:19.766Z,3.72
2022-11-15T02:20:19.753Z,3.74
2022-11-15T02:21:19.735Z,3.74
2022-11-15T02:22:19.720Z,3.78
2022-11-15T02:23:19.705Z,3.70
2022-11-15T02:24:19.695Z,3.75
2022-11-15T02:25:19.677Z,3.71
2022-11-15T02:26:19.670Z,3.72
2022-11-15T02:27:19.650Z,3.67
2022-11-15T02:28:19.642Z,3.70
2022-11-15T02:29:19.646Z,3.57
2022-11-15T02:30:19.618Z,3.70
2022-11-15T02:31:19.603Z,3.62
2022-11-15T02:32:19.597Z,3.72
2022-11-15T02:33:19.573Z,3.68
2022-11-15T02:34:19.568Z,3.59
2022-11-15T02:35:19.550Z,3.57
2022-11-15T02:36:19.545Z,3.57
2022-11-15T02:37:19.516Z,3.54
2022-11-15T02:38:19.506Z,3.54
2022-11-15T02:39:19.490Z,3.56
2022-11-15T02:40:19.484Z,3.57
2022-11-15T02:41:19.463Z,3.57
2022-11-15T02:42:19.456Z,3.63
2022-11-15T02:43:19.435Z,3.53
2022-11-15T02:44:19.479Z,3.63
2022-11-15T02:45:19.443Z,3.53
2022-11-15T02:46:19.405Z,3.52
2022-11-15T02:47:19.386Z,3.57
2022-11-15T02:48:19.379Z,3.59
2022-11-15T02:49:19.358Z,3.54
2022-11-15T02:50:19.351Z,3.44
2022-11-15T02:51:19.332Z,3.46
2022-11-15T02:52:19.318Z,3.45
2022-11-15T02:53:19.308Z,3.44
2022-11-15T02:54:19.297Z,3.41
2022-11-15T02:55:19.279Z,3.41
2022-11-15T02:56:19.269Z,3.33
2022-11-15T02:57:19.358Z,3.41
2022-11-15T02:58:19.250Z,3.41
2022-11-15T02:59:19.224Z,3.45
2022-11-15T03:00:19.222Z,3.26
2022-11-15T03:01:19.295Z,3.49
2022-11-15T03:02:19.185Z,3.56
2022-11-15T03:03:19.166Z,3.59
2022-11-15T03:04:19.158Z,3.64
2022-11-15T03:05:19.143Z,3.53
2022-11-15T03:06:19.134Z,3.59
2022-11-15T03:07:19.261Z,3.62
2022-11-15T03:08:19.106Z,3.54
2022-11-15T03:09:19.096Z,3.42
2022-11-15T03:10:19.087Z,3.59
2022-11-15T03:11:19.065Z,3.53
2022-11-15T03:12:19.064Z,3.60
2022-11-15T03:13:19.041Z,3.54
2022-11-15T03:14:19.032Z,3.57
2022-11-15T03:15:19.017Z,3.57
2022-11-15T03:16:19.001Z,3.52
2022-11-15T03:17:19.005Z,3.57
2022-11-15T03:18:18.970Z,3.60
2022-11-15T03:19:18.961Z,3.62
2022-11-15T03:20:18.948Z,3.63
2022-11-15T03:21:18.939Z,3.74
2022-11-15T03:22:18.927Z,3.68
2022-11-15T03:23:18.909Z,3.67
2022-11-15T03:24:23.295Z,3.72
2022-11-15T03:25:19.901Z,3.80
2022-11-15T03:26:18.864Z,3.67
2022-11-15T03:27:18.847Z,3.77
2022-11-15T03:28:18.841Z,3.88
2022-11-15T03:29:18.833Z,3.80
2022-11-15T03:30:18.816Z,3.80
2022-11-15T03:31:18.795Z,3.75
2022-11-15T03:32:18.786Z,3.74
2022-11-15T03:33:18.796Z,3.77
2022-11-15T03:34:18.766Z,3.81
2022-11-15T03:35:18.748Z,3.80
2022-11-15T03:36:18.737Z,3.81
2022-11-15T03:37:18.722Z,3.93
2022-11-15T03:38:18.758Z,3.82
2022-11-15T03:39:20.721Z,3.72
2022-11-15T03:40:18.686Z,3.81
2022-11-15T03:41:18.666Z,3.86
2022-11-15T03:42:18.657Z,3.78
2022-11-15T03:43:18.637Z,3.88
2022-11-15T03:44:18.625Z,3.81
2022-11-15T03:45:18.611Z,3.75
2022-11-15T03:46:18.598Z,3.77
2022-11-15T03:47:18.583Z,3.82
2022-11-15T03:48:18.575Z,3.90
2022-11-15T03:49:18.583Z,3.84
2022-11-15T03:50:18.551Z,3.81
2022-11-15T03:51:18.534Z,3.78
2022-11-15T03:52:18.522Z,3.81
2022-11-15T03:53:18.501Z,3.81
2022-11-15T03:54:18.497Z,3.78
2022-11-15T03:55:18.478Z,3.90
2022-11-15T03:56:18.469Z,3.88
2022-11-15T03:57:18.456Z,3.80
2022-11-15T03:58:18.443Z,3.82
2022-11-15T03:59:18.432Z,3.81
2022-11-15T04:00:18.418Z,3.86
2022-11-15T04:01:18.455Z,3.75
2022-11-15T04:02:18.394Z,3.78
2022-11-15T04:03:18.374Z,3.77
2022-11-15T04:04:18.418Z,3.75
2022-11-15T04:05:18.367Z,3.82
2022-11-15T04:06:18.334Z,3.68
2022-11-15T04:07:18.372Z,3.84
2022-11-15T04:08:18.309Z,3.82
2022-11-15T04:09:18.291Z,3.68
2022-11-15T04:10:18.281Z,3.78
2022-11-15T04:11:18.268Z,3.64
2022-11-15T04:12:18.258Z,3.71
2022-11-15T04:13:18.245Z,3.75
2022-11-15T04:14:18.231Z,3.88
2022-11-15T04:15:18.217Z,3.84
2022-11-15T04:16:18.203Z,3.81
2022-11-15T04:17:18.188Z,3.88
2022-11-15T04:18:18.177Z,3.86
2022-11-15T04:19:18.165Z,3.86
2022-11-15T04:20:18.157Z,3.82
2022-11-15T04:21:18.158Z,3.96
2022-11-15T04:22:18.123Z,3.86
2022-11-15T04:23:18.103Z,3.92
2022-11-15T04:24:18.110Z,3.90
2022-11-15T04:25:22.880Z,3.90
2022-11-15T04:26:18.072Z,3.80
2022-11-15T04:27:18.053Z,3.88
2022-11-15T04:28:18.050Z,3.92
2022-11-15T04:29:18.027Z,3.95
2022-11-15T04:30:18.023Z,3.98
2022-11-15T04:31:17.997Z,3.99
2022-11-15T04:32:17.988Z,4.02
2022-11-15T04:33:17.972Z,4.02
2022-11-15T04:34:17.959Z,3.90
2022-11-15T04:35:17.947Z,3.96
2022-11-15T04:36:18.138Z,4.00
2022-11-15T04:37:17.946Z,3.96
2022-11-15T04:38:17.910Z,4.04
2022-11-15T04:39:17.898Z,4.06
2022-11-15T04:40:17.893Z,4.00
2022-11-15T04:41:17.866Z,3.98
2022-11-15T04:42:17.858Z,3.89
2022-11-15T04:43:17.843Z,3.95
2022-11-15T04:44:17.833Z,3.95
2022-11-15T04:45:17.809Z,3.92
2022-11-15T04:46:17.801Z,3.86
2022-11-15T04:47:17.783Z,3.92
2022-11-15T04:48:17.778Z,3.88
2022-11-15T04:49:17.757Z,3.82
2022-11-15T04:50:17.753Z,3.81
2022-11-15T04:51:17.733Z,3.84
2022-11-15T04:52:17.729Z,3.86
2022-11-15T04:53:17.759Z,3.84
2022-11-15T04:54:17.702Z,3.78
2022-11-15T04:55:17.682Z,3.75
2022-11-15T04:56:17.675Z,3.82
2022-11-15T04:57:17.658Z,3.89
2022-11-15T04:58:17.648Z,3.72
2022-11-15T04:59:17.626Z,3.84
2022-11-15T05:00:17.619Z,3.81
2022-11-15T05:01:17.733Z,3.82
2022-11-15T05:02:17.594Z,3.81
2022-11-15T05:03:17.576Z,3.78
2022-11-15T05:04:17.568Z,3.80
2022-11-15T05:05:17.548Z,3.72
2022-11-15T05:06:17.537Z,3.81
2022-11-15T05:07:17.595Z,3.81
2022-11-15T05:08:17.513Z,3.92
2022-11-15T05:09:17.517Z,3.92
2022-11-15T05:10:17.484Z,3.90
2022-11-15T05:11:17.472Z,3.84
2022-11-15T05:12:17.460Z,3.84
2022-11-15T05:13:17.441Z,3.84
2022-11-15T05:14:17.434Z,4.00
2022-11-15T05:15:17.409Z,3.92
2022-11-15T05:16:17.405Z,3.92
2022-11-15T05:17:17.383Z,3.96
2022-11-15T05:18:23.089Z,3.90
2022-11-15T05:19:18.387Z,3.93
2022-11-15T05:20:17.354Z,4.14
2022-11-15T05:21:17.338Z,4.00
2022-11-15T05:22:17.320Z,3.99
2022-11-15T05:23:17.306Z,3.98
2022-11-15T05:24:17.298Z,3.95
2022-11-15T05:25:17.299Z,4.02
2022-11-15T05:26:17.270Z,3.98
2022-11-15T05:27:17.250Z,3.93
2022-11-15T05:28:17.242Z,3.98
2022-11-15T05:29:17.225Z,4.02
2022-11-15T05:30:17.209Z,3.84
2022-11-15T05:31:17.207Z,3.93
2022-11-15T05:32:17.191Z,3.93
2022-11-15T05:33:17.173Z,3.95
2022-11-15T05:34:17.166Z,3.99
2022-11-15T05:35:17.155Z,3.92
2022-11-15T05:36:17.138Z,3.96
2022-11-15T05:37:17.122Z,4.04
2022-11-15T05:38:17.110Z,3.98
2022-11-15T05:39:17.092Z,4.06
2022-11-15T05:40:17.087Z,4.07
2022-11-15T05:41:17.085Z,4.04
2022-11-15T05:42:17.054Z,4.08
2022-11-15T05:43:17.035Z,4.10
2022-11-15T05:44:17.024Z,4.11
2022-11-15T05:45:17.009Z,3.98
2022-11-15T05:46:16.999Z,3.90
2022-11-15T05:47:16.984Z,4.00
2022-11-15T05:48:16.976Z,3.88
2022-11-15T05:49:16.957Z,3.95
2022-11-15T05:50:16.945Z,3.95
2022-11-15T05:51:16.942Z,3.86
2022-11-15T05:52:16.925Z,3.89
2022-11-15T05:53:16.914Z,3.84
2022-11-15T05:54:16.896Z,3.80
2022-11-15T05:55:16.882Z,3.90
2022-11-15T05:56:16.872Z,3.86
2022-11-15T05:57:16.999Z,3.75
2022-11-15T05:58:16.841Z,3.77
2022-11-15T05:59:16.821Z,3.74
2022-11-15T06:00:16.812Z,3.77
2022-11-15T06:01:16.803Z,3.75
2022-11-15T06:02:16.847Z,3.81
2022-11-15T06:03:16.768Z,3.70
2022-11-15T06:04:16.761Z,3.60
2022-11-15T06:05:16.743Z,3.62
2022-11-15T06:06:16.734Z,3.71
2022-11-15T06:07:16.794Z,3.62
2022-11-15T06:08:17.196Z,3.63
2022-11-15T06:09:16.691Z,3.62
2022-11-15T06:10:16.681Z,3.54
2022-11-15T06:11:16.679Z,3.60
2022-11-15T06:12:16.653Z,3.54
2022-11-15T06:13:16.655Z,3.57
2022-11-15T06:14:16.625Z,3.56
2022-11-15T06:15:16.616Z,3.68
2022-11-15T06:16:16.600Z,3.59
2022-11-15T06:17:16.590Z,3.46
2022-11-15T06:18:16.579Z,3.52
2022-11-15T06:19:16.560Z,3.60
2022-11-15T06:20:16.553Z,3.56
2022-11-15T06:21:16.543Z,3.60
2022-11-15T06:22:16.525Z,3.64
2022-11-15T06:23:16.505Z,3.62
2022-11-15T06:24:16.497Z,3.60
2022-11-15T06:25:16.480Z,3.62
2022-11-15T06:26:16.501Z,3.62
2022-11-15T06:27:16.450Z,3.71
2022-11-15T06:28:16.443Z,3.71
2022-11-15T06:29:16.449Z,3.71
2022-11-15T06:30:16.427Z,3.72
2022-11-15T06:31:16.413Z,3.74
2022-11-15T06:32:16.391Z,3.82
2022-11-15T06:33:16.374Z,3.84
2022-11-15T06:34:16.354Z,3.89
2022-11-15T06:35:16.349Z,3.88
2022-11-15T06:36:17.872Z,3.96
2022-11-15T06:37:16.320Z,3.88
2022-11-15T06:38:16.301Z,4.02
2022-11-15T06:39:16.298Z,3.92
2022-11-15T06:40:16.276Z,3.89
2022-11-15T06:41:16.274Z,3.92
2022-11-15T06:42:16.256Z,3.99
2022-11-15T06:43:16.250Z,4.00
2022-11-15T06:44:16.227Z,4.07
2022-11-15T06:45:16.238Z,4.02
2022-11-15T06:46:16.200Z,4.08
2022-11-15T06:47:16.190Z,4.21
2022-11-15T06:48:16.179Z,4.26
2022-11-15T06:49:16.159Z,4.06
2022-11-15T06:50:16.150Z,4.17
2022-11-15T06:51:16.132Z,4.20
2022-11-15T06:52:16.147Z,4.29
2022-11-15T06:53:16.107Z,4.18
2022-11-15T06:54:16.087Z,4.20
2022-11-15T06:55:16.083Z,4.35
2022-11-15T06:56:16.065Z,4.26
2022-11-15T06:57:16.056Z,4.25
2022-11-15T06:58:16.037Z,4.29
2022-11-15T06:59:16.037Z,4.43
2022-11-15T07:00:16.012Z,4.47
2022-11-15T07:01:16.107Z,4.42
2022-11-15T07:02:15.983Z,4.49
2022-11-15T07:03:15.978Z,4.51
2022-11-15T07:04:15.961Z,4.44
2022-11-15T07:05:15.952Z,4.56
2022-11-15T07:06:15.937Z,4.53
2022-11-15T07:07:16.020Z,4.57
2022-11-15T07:08:15.909Z,4.59
2022-11-15T07:09:15.898Z,4.57
2022-11-15T07:10:15.880Z,4.54
2022-11-15T07:11:15.873Z,4.59
2022-11-15T07:12:15.856Z,4.61
2022-11-15T07:13:15.845Z,4.54
2022-11-15T07:14:15.839Z,4.72
2022-11-15T07:15:15.815Z,4.77
2022-11-15T07:16:15.804Z,4.69
2022-11-15T07:17:15.809Z,4.62
2022-11-15T07:18:15.774Z,4.72
2022-11-15T07:19:15.766Z,4.68
2022-11-15T07:20:15.751Z,4.90
2022-11-15T07:21:15.741Z,4.84
2022-11-15T07:22:15.722Z,4.83
2022-11-15T07:23:15.716Z,4.94
2022-11-15T07:24:15.693Z,5.04
2022-11-15T07:25:15.689Z,5.08
2022-11-15T07:26:15.671Z,5.01
2022-11-15T07:27:15.664Z,5.09
2022-11-15T07:28:15.645Z,5.17
2022-11-15T07:29:15.637Z,5.11
2022-11-15T07:30:15.856Z,5.17
2022-11-15T07:31:15.664Z,5.20
2022-11-15T07:32:15.597Z,5.26
2022-11-15T07:33:15.599Z,5.23
2022-11-15T07:34:15.561Z,5.41
2022-11-15T07:35:15.558Z,5.45
2022-11-15T07:36:15.541Z,5.41
2022-11-15T07:37:15.530Z,5.49
2022-11-15T07:38:15.514Z,5.47
2022-11-15T07:39:15.499Z,5.67
2022-11-15T07:40:15.486Z,5.66
2022-11-15T07:41:15.475Z,5.75
2022-11-15T07:42:15.456Z,5.66
2022-11-15T07:43:15.445Z,5.81
2022-11-15T07:44:15.430Z,5.81
2022-11-15T07:45:15.416Z,5.77
2022-11-15T07:46:15.399Z,5.85
2022-11-15T07:47:15.389Z,5.78
2022-11-15T07:48:15.371Z,5.83
2022-11-15T07:49:15.387Z,5.98
2022-11-15T07:50:15.345Z,5.85
2022-11-15T07:51:15.419Z,6.05
2022-11-15T07:52:15.336Z,5.99
2022-11-15T07:53:15.314Z,6.11
2022-11-15T07:54:15.293Z,6.11
2022-11-15T07:55:15.291Z,6.16
2022-11-15T07:56:15.271Z,6.11
2022-11-15T07:57:15.256Z,6.19
2022-11-15T07:58:15.242Z,6.16
2022-11-15T07:59:15.227Z,6.20
2022-11-15T08:00:15.210Z,6.16
2022-11-15T08:01:15.355Z,6.19
2022-11-15T08:02:15.321Z,6.25
2022-11-15T08:03:15.184Z,6.17
2022-11-15T08:04:15.174Z,6.20
2022-11-15T08:05:15.171Z,6.30
2022-11-15T08:06:15.141Z,6.40
2022-11-15T08:07:15.206Z,6.38
2022-11-15T08:08:15.114Z,6.35
2022-11-15T08:09:15.103Z,6.42
2022-11-15T08:10:15.086Z,6.48
2022-11-15T08:11:15.076Z,6.48
2022-11-15T08:12:15.057Z,6.51
2022-11-15T08:13:15.136Z,6.38
2022-11-15T08:14:15.026Z,6.46
2022-11-15T08:15:15.016Z,6.42
2022-11-15T08:16:15.002Z,6.45
2022-11-15T08:17:14.988Z,6.45
2022-11-15T08:18:14.972Z,6.51
2022-11-15T08:19:14.961Z,6.35
2022-11-15T08:20:14.951Z,6.48
2022-11-15T08:21:18.265Z,6.55
2022-11-15T08:22:14.992Z,6.58
2022-11-15T08:23:14.914Z,6.61
2022-11-15T08:24:14.898Z,6.58
2022-11-15T08:25:14.888Z,6.58
2022-11-15T08:26:14.871Z,6.61
2022-11-15T08:27:14.920Z,6.68
2022-11-15T08:28:14.850Z,6.75
2022-11-15T08:29:14.831Z,6.69
2022-11-15T08:30:14.812Z,6.58
2022-11-15T08:31:14.801Z,6.68
2022-11-15T08:32:14.787Z,6.79
2022-11-15T08:33:14.819Z,6.71
2022-11-15T08:34:14.759Z,6.78
2022-11-15T08:35:14.753Z,6.68
2022-11-15T08:36:14.732Z,6.79
2022-11-15T08:37:14.749Z,6.87
2022-11-15T08:38:14.735Z,6.91
2022-11-15T08:39:14.704Z,6.87
2022-11-15T08:40:14.691Z,6.91
2022-11-15T08:41:14.668Z,6.96
2022-11-15T08:42:19.588Z,7.01
2022-11-15T08:43:14.640Z,6.94
2022-11-15T08:44:14.625Z,7.00
2022-11-15T08:45:14.624Z,6.89
2022-11-15T08:46:14.603Z,6.99
2022-11-15T08:47:14.591Z,6.97
2022-11-15T08:48:14.576Z,7.01
2022-11-15T08:49:14.575Z,6.96
2022-11-15T08:50:14.551Z,6.96
2022-11-15T08:51:14.538Z,7.00
2022-11-15T08:52:14.522Z,7.05
2022-11-15T08:53:14.527Z,7.05
2022-11-15T08:54:14.498Z,6.99
2022-11-15T08:55:17.294Z,6.96
2022-11-15T08:56:14.465Z,7.09
2022-11-15T08:57:14.456Z,7.19
2022-11-15T08:58:14.438Z,7.33
2022-11-15T08:59:14.431Z,7.39
2022-11-15T09:00:14.409Z,7.34
2022-11-15T09:01:18.367Z,7.29
2022-11-15T09:02:14.390Z,7.39
2022-11-15T09:03:14.380Z,7.54
2022-11-15T09:04:14.362Z,7.62
2022-11-15T09:05:14.350Z,7.58
2022-11-15T09:06:14.338Z,7.76
2022-11-15T09:07:14.472Z,7.74
2022-11-15T09:08:40.754Z,8.00
2022-11-15T09:09:15.338Z,7.89
2022-11-15T09:10:14.278Z,8.10
2022-11-15T09:11:14.268Z,8.04
2022-11-15T09:12:14.311Z,8.13
2022-11-15T09:13:14.244Z,8.03
2022-11-15T09:14:14.229Z,8.25
2022-11-15T09:15:14.236Z,8.10
2022-11-15T09:16:14.202Z,8.13
2022-11-15T09:17:14.221Z,8.17
2022-11-15T09:18:14.169Z,8.12
2022-11-15T09:19:14.160Z,8.24
2022-11-15T09:20:14.148Z,8.20
2022-11-15T09:21:14.138Z,8.14
2022-11-15T09:22:14.121Z,8.31
2022-11-15T09:23:14.111Z,8.18
2022-11-15T09:24:14.091Z,8.17
2022-11-15T09:25:14.193Z,8.29
2022-11-15T09:26:14.069Z,8.28
2022-11-15T09:27:14.062Z,8.21
2022-11-15T09:28:14.041Z,8.31
2022-11-15T09:29:14.034Z,8.45
2022-11-15T09:30:14.017Z,8.46
2022-11-15T09:31:16.840Z,8.32
2022-11-15T09:32:15.141Z,8.36
2022-11-15T09:33:13.974Z,8.43
2022-11-15T09:34:13.957Z,8.60
2022-11-15T09:35:13.942Z,8.64
2022-11-15T09:36:13.928Z,8.63
2022-11-15T09:37:13.927Z,8.67
2022-11-15T09:38:13.916Z,8.70
2022-11-15T09:39:14.141Z,8.86
2022-11-15T09:40:13.876Z,8.85
2022-11-15T09:41:13.895Z,8.91
2022-11-15T09:42:13.853Z,8.93
2022-11-15T09:43:13.841Z,8.96
2022-11-15T09:44:13.836Z,9.00
2022-11-15T09:45:13.811Z,8.98
2022-11-15T09:46:13.790Z,8.98
2022-11-15T09:47:20.116Z,9.12
2022-11-15T09:48:13.766Z,9.08
2022-11-15T09:49:13.760Z,9.10
2022-11-15T09:50:13.762Z,9.15
2022-11-15T09:51:13.778Z,9.27
2022-11-15T09:52:13.716Z,9.17
2022-11-15T09:53:13.700Z,9.17
2022-11-15T09:55:13.683Z,9.20
2022-11-15T09:56:13.664Z,9.17
2022-11-15T09:57:16.203Z,9.34
2022-11-15T09:58:13.630Z,9.38
2022-11-15T09:59:13.921Z,9.31
2022-11-15T10:01:13.626Z,9.48
2022-11-15T10:02:13.581Z,9.45
2022-11-15T10:03:13.570Z,9.35
2022-11-15T10:04:13.551Z,9.32
2022-11-15T10:05:13.546Z,9.38
2022-11-15T10:06:13.529Z,9.38
2022-11-15T10:07:13.595Z,9.50
2022-11-15T10:08:13.502Z,9.48
2022-11-15T10:09:13.543Z,9.42
2022-11-15T10:10:13.478Z,9.71
2022-11-15T10:12:13.450Z,9.56
2022-11-15T10:13:13.458Z,9.59
2022-11-15T10:14:13.421Z,9.53
2022-11-15T10:15:13.410Z,9.50
2022-11-15T10:16:13.393Z,9.71
2022-11-15T10:17:13.402Z,9.59
2022-11-15T10:18:13.368Z,9.65
2022-11-15T10:19:13.359Z,9.63
2022-11-15T10:20:13.344Z,9.59
2022-11-15T10:21:13.328Z,9.53
2022-11-15T10:22:13.320Z,9.58
2022-11-15T10:23:13.300Z,9.60
2022-11-15T10:24:13.282Z,9.77
2022-11-15T10:25:13.272Z,9.62
2022-11-15T10:26:13.268Z,9.86
2022-11-15T10:27:13.251Z,9.91
2022-11-15T10:28:13.228Z,9.85
2022-11-15T10:29:13.318Z,9.98
2022-11-15T10:30:13.207Z,9.78
2022-11-15T10:31:15.460Z,9.86
2022-11-15T10:32:13.181Z,9.91
2022-11-15T10:33:13.169Z,9.95
2022-11-15T10:34:13.157Z,9.83
2022-11-15T10:35:13.142Z,9.96
2022-11-15T10:36:13.126Z,9.78
2022-11-15T10:37:13.175Z,9.78
2022-11-15T10:38:13.096Z,9.93
2022-11-15T10:39:13.087Z,9.86
2022-11-15T10:40:13.067Z,10.04
2022-11-15T10:41:13.060Z,9.91
2022-11-15T10:42:17.672Z,9.92
2022-11-15T10:43:13.038Z,9.91
2022-11-15T10:44:13.020Z,10.06
2022-11-15T10:45:13.030Z,9.99
2022-11-15T10:46:39.475Z,10.06
2022-11-15T10:47:14.007Z,9.99
2022-11-15T10:48:13.062Z,10.01
2022-11-15T10:49:13.014Z,9.99
2022-11-15T10:50:12.947Z,10.01
2022-11-15T10:51:12.920Z,9.95
2022-11-15T10:52:12.911Z,9.99
2022-11-15T10:53:12.900Z,9.89
2022-11-15T10:54:15.905Z,10.06
2022-11-15T10:55:12.868Z,10.10
2022-11-15T10:56:12.860Z,9.88
2022-11-15T10:57:12.843Z,10.06
2022-11-15T10:58:12.872Z,9.81
2022-11-15T10:59:12.817Z,9.95
2022-11-15T11:00:12.925Z,10.02
2022-11-15T11:01:12.911Z,9.78
2022-11-15T11:02:12.783Z,9.86
2022-11-15T11:03:12.769Z,9.98
2022-11-15T11:04:12.750Z,9.88
2022-11-15T11:05:12.732Z,9.96
2022-11-15T11:06:12.725Z,9.92
2022-11-15T11:07:12.751Z,9.93
2022-11-15T11:08:12.762Z,9.88
2022-11-15T11:09:12.685Z,9.91
2022-11-15T11:10:36.306Z,9.95
2022-11-15T11:11:13.686Z,9.92
2022-11-15T11:12:12.652Z,9.93
2022-11-15T11:13:12.624Z,9.88
2022-11-15T11:14:12.629Z,10.10
2022-11-15T11:15:12.604Z,10.07
2022-11-15T11:16:12.590Z,10.04
2022-11-15T11:17:12.596Z,10.02
2022-11-15T11:18:12.562Z,10.09
2022-11-15T11:19:12.550Z,10.10
2022-11-15T11:20:12.566Z,10.13
2022-11-15T11:21:12.525Z,10.10
2022-11-15T11:22:12.515Z,10.14
2022-11-15T11:23:12.499Z,10.31
2022-11-15T11:24:12.491Z,10.42
2022-11-15T11:25:12.471Z,10.35
2022-11-15T11:26:12.458Z,10.32
2022-11-15T11:27:12.443Z,10.35
2022-11-15T11:28:12.432Z,10.47
2022-11-15T11:29:12.417Z,10.49
2022-11-15T11:30:12.534Z,10.57
2022-11-15T11:31:12.391Z,10.54
2022-11-15T11:32:12.378Z,10.42
2022-11-15T11:33:12.386Z,10.57
2022-11-15T11:34:12.357Z,10.58
2022-11-15T11:35:12.370Z,10.65
2022-11-15T11:36:12.329Z,10.65
2022-11-15T11:37:12.383Z,10.65
2022-11-15T11:38:15.720Z,10.76
2022-11-15T11:39:12.288Z,10.80
2022-11-15T11:40:12.280Z,11.01
2022-11-15T11:41:12.259Z,11.01
2022-11-15T11:42:12.254Z,10.99
2022-11-15T11:43:12.231Z,10.98
2022-11-15T11:44:12.222Z,11.09
2022-11-15T11:45:12.209Z,11.05
2022-11-15T11:46:12.193Z,10.95
2022-11-15T11:47:12.174Z,10.86
2022-11-15T11:48:12.168Z,10.87
2022-11-15T11:49:12.175Z,10.88
2022-11-15T11:50:12.146Z,10.95
2022-11-15T11:51:12.125Z,10.87
2022-11-15T11:52:12.119Z,10.88
2022-11-15T11:53:12.118Z,10.99
2022-11-15T11:54:12.235Z,10.93
2022-11-15T11:55:12.073Z,10.87
2022-11-15T11:56:12.062Z,10.83
2022-11-15T11:57:12.055Z,10.94
2022-11-15T11:58:12.042Z,10.90
2022-11-15T11:59:12.020Z,10.86
2022-11-15T12:00:12.009Z,10.91
2022-11-15T12:01:13.022Z,10.84
2022-11-15T12:02:12.092Z,11.02
2022-11-15T12:03:12.160Z,10.81
2022-11-15T12:04:11.952Z,10.86
2022-11-15T12:05:11.954Z,10.86
2022-11-15T12:06:11.925Z,10.86
2022-11-15T12:07:11.973Z,10.81
2022-11-15T12:08:11.897Z,10.94
2022-11-15T12:09:11.883Z,10.90
2022-11-15T12:10:11.920Z,10.86
2022-11-15T12:11:11.857Z,10.91
2022-11-15T12:12:12.050Z,10.73
2022-11-15T12:13:11.828Z,10.87
2022-11-15T12:14:11.817Z,10.75
2022-11-15T12:15:11.798Z,10.80
2022-11-15T12:16:11.788Z,10.80
2022-11-15T12:17:11.774Z,10.87
2022-11-15T12:18:11.771Z,10.83
2022-11-15T12:19:11.749Z,10.95
2022-11-15T12:20:11.738Z,10.93
2022-11-15T12:21:11.757Z,10.98
2022-11-15T12:22:11.712Z,10.95
2022-11-15T12:23:11.691Z,10.91
2022-11-15T12:24:11.685Z,11.06
2022-11-15T12:25:11.661Z,11.16
2022-11-15T12:26:11.656Z,11.11
2022-11-15T12:27:11.637Z,11.08
2022-11-15T12:28:11.623Z,11.06
2022-11-15T12:29:11.613Z,11.23
2022-11-15T12:30:11.693Z,11.17
2022-11-15T12:31:11.583Z,11.19
2022-11-15T12:32:11.596Z,11.24
2022-11-15T12:33:11.571Z,11.27
2022-11-15T12:34:11.541Z,11.24
2022-11-15T12:35:11.528Z,11.33
2022-11-15T12:36:11.520Z,11.36
2022-11-15T12:37:11.521Z,11.28
2022-11-15T12:38:11.489Z,11.20
2022-11-15T12:39:11.471Z,11.26
2022-11-15T12:40:11.539Z,11.11
2022-11-15T12:41:11.444Z,11.26
2022-11-15T12:42:11.434Z,11.24
2022-11-15T12:43:11.415Z,11.20
2022-11-15T12:44:11.449Z,11.21
2022-11-15T12:45:11.391Z,11.17
2022-11-15T12:46:11.383Z,11.21
2022-11-15T12:47:11.372Z,11.20
2022-11-15T12:48:11.358Z,11.23
2022-11-15T12:49:11.348Z,11.21
2022-11-15T12:50:11.381Z,11.26
2022-11-15T12:51:11.309Z,11.35
2022-11-15T12:52:11.308Z,11.44
2022-11-15T12:53:11.548Z,11.49
2022-11-15T12:54:11.266Z,11.53
2022-11-15T12:55:11.250Z,11.49
2022-11-15T12:56:11.239Z,11.48
2022-11-15T12:57:11.231Z,11.46
2022-11-15T12:58:11.217Z,11.54
2022-11-15T12:59:11.198Z,11.54
2022-11-15T13:00:11.199Z,11.53
2022-11-15T13:01:11.208Z,11.57
2022-11-15T13:02:11.158Z,11.59
2022-11-15T13:03:11.140Z,11.57
2022-11-15T13:04:11.131Z,11.67
2022-11-15T13:05:11.114Z,11.59
2022-11-15T13:06:11.108Z,11.57
2022-11-15T13:07:11.145Z,11.51
2022-11-15T13:08:11.079Z,11.53
2022-11-15T13:09:11.085Z,11.51
2022-11-15T13:10:11.201Z,11.46
2022-11-15T13:11:11.038Z,11.51
2022-11-15T13:12:11.026Z,11.48
2022-11-15T13:13:11.007Z,11.36
2022-11-15T13:14:10.999Z,11.35
2022-11-15T13:15:10.981Z,11.36
2022-11-15T13:16:10.970Z,11.42
2022-11-15T13:17:10.950Z,11.41